Time;durP1;ratioP1;P1;durP2;ratioP2;P2;SDS_P1;SDS_P2;PMS_P1;PMS_P2;Temp;Humidity;BMP_temperature;BMP_pressure;BME280_temperature;BME280_humidity;BME280_pressure;Samples;Min_cycle;Max_cycle;Signal;HPM_P1;HPM_P2
2023/12/26 00:00:33;;;;;;;0.00;0.00;;;;;;;17.57;73.86;100606.00;5050358;28;20025;-76
2023/12/26 00:02:58;;;;;;;0.00;0.00;;;;;;;16.86;78.29;100592.19;5051003;28;20469;-76
2023/12/26 00:05:24;;;;;;;0.00;0.00;;;;;;;17.88;73.41;100587.97;5068137;28;20039;-77
2023/12/26 00:07:49;;;;;;;0.00;0.00;;;;;;;17.85;71.28;100593.38;5047774;28;20781;-78
2023/12/26 00:10:15;;;;;;;0.03;0.03;;;;;;;17.27;74.11;100587.88;5065357;28;20065;-77
2023/12/26 00:12:42;;;;;;;0.00;0.00;;;;;;;16.96;76.98;100598.84;5040261;28;20027;-76
2023/12/26 00:15:08;;;;;;;0.00;0.00;;;;;;;17.22;76.63;100604.84;5053844;28;20392;-77
2023/12/26 00:17:34;;;;;;;0.00;0.00;;;;;;;17.19;77.24;100605.84;5051581;28;20043;-76
2023/12/26 00:20:00;;;;;;;0.00;0.00;;;;;;;16.73;77.99;100595.34;5057555;28;20029;-77
2023/12/26 00:22:25;;;;;;;0.00;0.00;;;;;;;16.58;78.58;100603.81;5047345;28;20029;-77
2023/12/26 00:24:52;;;;;;;0.23;0.23;;;;;;;17.12;77.62;100599.94;5056095;28;20036;-76
2023/12/26 00:27:18;;;;;;;0.00;0.00;;;;;;;17.07;77.15;100591.34;5051702;28;20348;-77
2023/12/26 00:29:43;;;;;;;0.00;0.00;;;;;;;17.29;74.34;100587.81;5062394;28;20405;-76
2023/12/26 00:32:09;;;;;;;0.00;0.00;;;;;;;17.68;74.74;100591.47;5050783;28;20033;-77
2023/12/26 00:34:34;;;;;;;0.00;0.00;;;;;;;17.35;75.93;100592.88;5060630;28;20042;-77
2023/12/26 00:36:59;;;;;;;0.00;0.00;;;;;;;17.22;75.30;100589.84;5050260;28;20026;-76
2023/12/26 00:39:25;;;;;;;0.00;0.00;;;;;;;17.02;77.08;100603.91;5059773;28;20024;-77
2023/12/26 00:41:50;;;;;;;0.00;0.00;;;;;;;17.76;73.91;100578.78;5046237;28;20095;-76
2023/12/26 00:44:16;;;;;;;0.00;0.00;;;;;;;17.44;73.21;100592.44;5046539;28;20107;-77
2023/12/26 00:46:43;;;;;;;0.10;0.10;;;;;;;17.64;72.12;100602.19;5051702;28;20046;-77
2023/12/26 00:49:08;;;;;;;0.00;0.00;;;;;;;17.85;71.52;100585.47;5056155;28;20032;-77
2023/12/26 00:51:33;;;;;;;0.00;0.00;;;;;;;17.50;71.79;100593.13;5042165;28;20025;-77
2023/12/26 00:53:59;;;;;;;0.00;0.00;;;;;;;17.39;73.16;100596.22;5051411;28;20035;-78
2023/12/26 00:56:24;;;;;;;0.00;0.00;;;;;;;17.32;74.20;100606.19;5042893;28;20037;-77
2023/12/26 00:58:50;;;;;;;0.00;0.00;;;;;;;17.16;72.68;100603.34;5049882;28;20020;-77
2023/12/26 01:01:15;;;;;;;0.00;0.00;;;;;;;17.29;74.07;100596.59;5049978;28;20021;-77
2023/12/26 01:03:41;;;;;;;0.00;0.00;;;;;;;17.25;75.13;100610.00;5049315;28;20061;-76
2023/12/26 01:06:06;;;;;;;0.00;0.00;;;;;;;17.31;74.12;100620.31;5050385;28;20036;-77
2023/12/26 01:08:32;;;;;;;0.00;0.00;;;;;;;16.96;76.66;100604.13;5046884;28;20080;-77
2023/12/26 01:10:57;;;;;;;0.00;0.00;;;;;;;17.64;73.74;100607.47;5069581;28;20028;-76
2023/12/26 01:13:23;;;;;;;0.20;0.20;;;;;;;17.63;72.20;100610.19;5069537;28;20035;-77
2023/12/26 01:15:48;;;;;;;0.00;0.00;;;;;;;17.67;71.58;100617.03;5055044;28;20538;-78
2023/12/26 01:18:14;;;;;;;0.00;0.00;;;;;;;17.62;70.98;100629.59;5043982;28;20059;-78
2023/12/26 01:20:39;;;;;;;1.60;1.50;;;;;;;17.58;71.33;100617.44;5066774;28;20064;-77
2023/12/26 01:23:05;;;;;;;0.00;0.00;;;;;;;17.67;69.84;100621.44;5055781;28;20098;-78
2023/12/26 01:25:30;;;;;;;0.00;0.00;;;;;;;17.44;72.00;100629.44;5046325;28;20075;-76
2023/12/26 01:27:55;;;;;;;1.07;1.03;;;;;;;17.54;73.53;100634.34;5049144;28;20033;-77
2023/12/26 01:30:21;;;;;;;0.00;0.00;;;;;;;17.79;68.86;100642.06;5050754;28;20060;-77
2023/12/26 01:32:47;;;;;;;0.47;0.47;;;;;;;16.63;76.65;100646.72;5049097;28;20098;-76
2023/12/26 01:35:12;;;;;;;0.00;0.00;;;;;;;17.39;70.88;100633.19;5048540;28;20128;-77
2023/12/26 01:37:37;;;;;;;0.00;0.00;;;;;;;16.88;74.08;100637.88;5048500;28;20025;-75
2023/12/26 01:40:03;;;;;;;0.83;0.83;;;;;;;17.90;70.65;100653.06;5050401;28;20039;-76
2023/12/26 01:42:32;;;;;;;0.00;0.00;;;;;;;17.13;71.80;100648.31;5049764;28;20028;-77
2023/12/26 01:44:57;;;;;;;0.00;0.00;;;;;;;17.44;71.19;100653.22;5051868;28;20032;-77
2023/12/26 01:47:23;;;;;;;0.00;0.00;;;;;;;18.29;66.86;100648.75;5048021;28;20052;-77
2023/12/26 01:49:49;;;;;;;0.10;0.10;;;;;;;18.01;67.68;100644.69;5050589;28;20456;-77
2023/12/26 01:52:19;;;;;;;0.10;0.10;;;;;;;17.31;69.27;100659.94;5045542;28;20037;-76
2023/12/26 01:54:45;;;;;;;0.00;0.00;;;;;;;17.47;69.60;100652.22;5046755;28;20253;-77
2023/12/26 01:57:10;;;;;;;0.00;0.00;;;;;;;17.07;70.70;100662.63;5048084;28;20079;-75
2023/12/26 01:59:37;;;;;;;0.00;0.00;;;;;;;17.24;68.36;100672.53;5049566;28;20103;-75
2023/12/26 02:02:04;;;;;;;0.00;0.00;;;;;;;18.35;65.09;100664.31;5049587;28;20031;-77
2023/12/26 02:04:31;;;;;;;0.00;0.00;;;;;;;17.23;68.60;100680.53;5048661;28;20040;-75
2023/12/26 02:06:59;;;;;;;48.40;3.23;;;;;;;17.13;70.03;100685.28;5047080;28;20031;-76
2023/12/26 02:09:25;;;;;;;0.27;0.27;;;;;;;17.80;66.68;100697.56;5047556;28;20017;-77
2023/12/26 02:11:54;;;;;;;0.17;0.17;;;;;;;17.25;67.72;100689.25;5048081;28;20040;-76
2023/12/26 02:14:21;;;;;;;0.00;0.00;;;;;;;17.48;66.98;100684.81;5045465;28;20036;-76
2023/12/26 02:16:47;;;;;;;0.27;0.20;;;;;;;17.20;67.76;100720.25;5049289;28;20037;-75
2023/12/26 02:19:14;;;;;;;0.00;0.00;;;;;;;16.93;67.85;100696.66;5042691;28;20021;-75
2023/12/26 02:21:39;;;;;;;0.03;0.03;;;;;;;17.48;65.51;100698.88;5048681;28;20128;-75
2023/12/26 02:24:05;;;;;;;0.00;0.00;;;;;;;16.61;69.65;100719.81;5047709;28;20512;-76
2023/12/26 02:26:35;;;;;;;0.00;0.00;;;;;;;17.68;65.50;100700.72;5046836;28;20481;-76
2023/12/26 02:29:02;;;;;;;2.07;1.90;;;;;;;17.28;65.77;100705.84;5044130;28;20488;-76
2023/12/26 02:31:32;;;;;;;0.00;0.00;;;;;;;16.82;66.70;100726.06;5048142;28;20044;-76
2023/12/26 02:33:58;;;;;;;0.00;0.00;;;;;;;16.82;67.67;100725.22;5045209;28;20051;-76
2023/12/26 02:36:24;;;;;;;0.00;0.00;;;;;;;16.74;66.95;100728.97;5039835;28;20484;-76
2023/12/26 02:38:50;;;;;;;0.00;0.00;;;;;;;16.71;67.11;100725.63;5033526;28;20030;-77
2023/12/26 02:41:15;;;;;;;0.00;0.00;;;;;;;17.40;64.85;100730.88;5055845;28;20035;-77
2023/12/26 02:43:41;;;;;;;1.10;1.07;;;;;;;16.72;65.17;100737.88;5066983;28;20056;-76
2023/12/26 02:46:06;;;;;;;0.00;0.00;;;;;;;16.76;66.55;100729.81;5052579;28;20056;-77
2023/12/26 02:48:31;;;;;;;0.00;0.00;;;;;;;16.89;63.54;100726.72;5051288;28;20039;-76
2023/12/26 02:50:57;;;;;;;0.00;0.00;;;;;;;17.20;63.25;100723.78;5052872;28;20104;-76
2023/12/26 02:53:22;;;;;;;0.00;0.00;;;;;;;16.37;66.45;100754.06;5052384;28;20391;-77
2023/12/26 02:55:50;;;;;;;0.00;0.00;;;;;;;16.72;65.43;100746.66;5056921;28;20025;-76
2023/12/26 02:58:16;;;;;;;0.00;0.00;;;;;;;17.06;62.60;100756.00;5050754;28;20024;-76
2023/12/26 03:00:41;;;;;;;0.00;0.00;;;;;;;17.26;60.78;100759.63;5051957;28;20399;-76
2023/12/26 03:03:06;;;;;;;0.00;0.00;;;;;;;17.75;58.07;100755.03;5048215;28;20497;-76
2023/12/26 03:05:32;;;;;;;0.00;0.00;;;;;;;16.84;60.19;100757.69;5053161;28;20033;-76
2023/12/26 03:07:59;;;;;;;0.10;0.10;;;;;;;16.48;62.89;100773.94;5065977;28;20033;-75
2023/12/26 03:10:24;;;;;;;0.00;0.00;;;;;;;16.97;61.66;100766.91;5051332;28;20124;-76
2023/12/26 03:12:50;;;;;;;0.00;0.00;;;;;;;17.21;61.10;100766.88;5048880;28;20036;-76
2023/12/26 03:15:15;;;;;;;0.00;0.00;;;;;;;17.18;60.25;100788.97;5051112;28;20029;-76
2023/12/26 03:17:41;;;;;;;0.00;0.00;;;;;;;16.72;61.98;100791.53;5045781;28;20397;-76
2023/12/26 03:20:07;;;;;;;0.10;0.10;;;;;;;17.21;59.51;100788.84;5066378;28;20441;-76
2023/12/26 03:22:32;;;;;;;4.70;0.80;;;;;;;17.03;58.53;100790.41;5051181;28;20086;-76
2023/12/26 03:24:58;;;;;;;2.30;0.60;;;;;;;17.18;58.30;100803.97;5048875;28;20575;-76
2023/12/26 03:27:23;;;;;;;12.47;0.80;;;;;;;17.09;59.06;100798.13;5051907;28;20039;-77
2023/12/26 03:29:48;;;;;;;3.23;0.67;;;;;;;16.49;59.98;100815.25;5050149;28;20140;-77
2023/12/26 03:32:17;;;;;;;9.50;0.80;;;;;;;16.82;59.14;100802.63;5072240;28;20030;-77
2023/12/26 03:34:43;;;;;;;3.83;0.70;;;;;;;16.38;58.24;100798.00;5044770;28;20082;-75
2023/12/26 03:37:09;;;;;;;5.87;1.17;;;;;;;16.87;57.19;100792.75;5050249;28;20032;-76
2023/12/26 03:39:34;;;;;;;3.30;1.00;;;;;;;17.02;56.81;100803.69;5050416;28;20029;-76
2023/12/26 03:42:00;;;;;;;2.73;0.30;;;;;;;16.10;58.17;100809.50;5066780;28;20480;-75
2023/12/26 03:44:25;;;;;;;2.83;0.70;;;;;;;16.74;55.56;100804.66;5050731;28;20032;-75
2023/12/26 03:46:51;;;;;;;3.97;0.87;;;;;;;16.42;55.28;100826.00;5065245;28;20094;-76
2023/12/26 03:49:16;;;;;;;3.53;0.70;;;;;;;16.71;54.40;100821.47;5046023;28;20399;-75
2023/12/26 03:51:44;;;;;;;2.47;0.50;;;;;;;16.59;53.82;100832.47;5071959;28;20044;-76
2023/12/26 03:54:09;;;;;;;5.17;0.93;;;;;;;16.93;53.46;100826.03;5056368;28;20036;-76
2023/12/26 03:56:35;;;;;;;3.50;0.90;;;;;;;16.76;53.27;100814.25;5061778;28;20392;-76
2023/12/26 03:59:00;;;;;;;3.10;0.53;;;;;;;16.60;53.24;100828.91;5063440;28;20028;-75
2023/12/26 04:01:27;;;;;;;4.13;0.60;;;;;;;15.94;54.87;100830.22;5061587;28;20495;-76
2023/12/26 04:03:53;;;;;;;3.87;0.57;;;;;;;16.11;54.54;100842.88;5070329;28;20029;-76
2023/12/26 04:06:19;;;;;;;5.07;0.60;;;;;;;15.83;54.43;100847.31;5062128;28;20115;-76
2023/12/26 04:08:45;;;;;;;4.60;0.70;;;;;;;16.60;52.08;100844.75;5047633;28;20036;-75
2023/12/26 04:11:11;;;;;;;3.47;0.57;;;;;;;16.63;50.67;100855.19;5057365;28;20103;-75
2023/12/26 04:13:37;;;;;;;4.73;0.60;;;;;;;16.70;51.32;100851.41;5066965;28;20025;-76
2023/12/26 04:16:03;;;;;;;6.87;0.60;;;;;;;16.15;52.45;100858.59;5054051;28;20031;-76
2023/12/26 04:18:30;;;;;;;4.27;0.37;;;;;;;15.31;53.85;100858.47;5052987;28;20028;-75
2023/12/26 04:20:55;;;;;;;6.43;0.70;;;;;;;15.74;53.23;100862.47;5053943;28;20109;-76
2023/12/26 04:23:21;;;;;;;2.67;0.50;;;;;;;15.50;53.39;100868.47;5062731;28;20450;-76
2023/12/26 04:25:46;;;;;;;6.80;0.57;;;;;;;16.02;52.23;100873.91;5050892;28;20039;-76
2023/12/26 04:28:12;;;;;;;5.30;0.50;;;;;;;15.57;52.22;100877.91;5055014;28;20029;-75
2023/12/26 04:30:37;;;;;;;7.97;1.47;;;;;;;15.27;52.12;100876.13;5049462;28;20035;-76
2023/12/26 04:33:05;;;;;;;1.93;0.80;;;;;;;15.80;49.90;100879.88;5055774;28;20036;-76
2023/12/26 04:35:31;;;;;;;2.80;0.40;;;;;;;15.77;50.67;100885.19;5044838;28;20032;-76
2023/12/26 04:37:56;;;;;;;3.47;0.60;;;;;;;16.00;50.38;100884.50;5054965;28;20033;-75
2023/12/26 04:40:21;;;;;;;6.80;0.90;;;;;;;16.71;48.87;100895.38;5055911;28;20416;-76
2023/12/26 04:42:47;;;;;;;6.63;0.70;;;;;;;15.68;50.29;100896.91;5059131;28;20021;-76
2023/12/26 04:45:12;;;;;;;7.03;0.90;;;;;;;15.59;50.33;100907.69;5046494;28;20025;-76
2023/12/26 04:47:38;;;;;;;10.93;1.27;;;;;;;15.96;50.22;100916.31;5041629;28;20032;-75
2023/12/26 04:50:04;;;;;;;6.17;1.10;;;;;;;16.07;50.10;100909.81;5046586;28;20032;-76
2023/12/26 04:52:30;;;;;;;5.57;0.70;;;;;;;16.42;49.10;100926.25;5051764;28;20021;-76
2023/12/26 04:54:55;;;;;;;8.77;0.70;;;;;;;16.30;49.31;100921.38;5050330;28;20031;-76
2023/12/26 04:57:21;;;;;;;4.63;1.00;;;;;;;16.39;48.73;100923.72;5050140;28;20859;-76
2023/12/26 04:59:46;;;;;;;7.03;0.83;;;;;;;16.47;48.64;100917.31;5049654;28;20036;-76
2023/12/26 05:02:12;;;;;;;3.97;0.80;;;;;;;15.57;50.29;100928.81;5056069;28;20029;-76
2023/12/26 05:04:38;;;;;;;2.50;0.90;;;;;;;16.37;48.53;100917.59;5050928;28;20472;-76
2023/12/26 05:07:03;;;;;;;8.00;0.87;;;;;;;15.85;49.27;100933.31;5056534;28;20078;-76
2023/12/26 05:09:32;;;;;;;6.23;0.70;;;;;;;15.86;49.18;100942.09;5045763;28;20025;-76
2023/12/26 05:11:59;;;;;;;3.13;0.57;;;;;;;16.18;48.88;100940.22;5040872;28;20503;-76
2023/12/26 05:14:24;;;;;;;5.17;0.60;;;;;;;15.71;49.68;100941.59;5057426;28;20382;-76
2023/12/26 05:16:50;;;;;;;3.63;0.53;;;;;;;15.29;49.86;100947.22;5049281;28;20059;-76
2023/12/26 05:19:17;;;;;;;12.83;1.07;;;;;;;15.30;49.96;100946.28;5046438;28;20026;-76
2023/12/26 05:21:42;;;;;;;3.10;0.57;;;;;;;15.59;49.52;100949.84;5031387;28;20516;-76
2023/12/26 05:24:08;;;;;;;3.50;0.60;;;;;;;15.45;49.22;100952.88;5051131;28;20029;-76
2023/12/26 05:26:40;;;;;;;4.87;0.70;;;;;;;16.14;47.39;100957.06;5066238;28;20165;-76
2023/12/26 05:29:06;;;;;;;10.57;1.42;;;;;;;15.80;47.35;100958.06;5069585;28;20016;-76
2023/12/26 05:31:31;;;;;;;3.17;0.67;;;;;;;15.92;46.75;100958.59;5040579;28;20451;-76
2023/12/26 05:33:58;;;;;;;5.60;0.87;;;;;;;15.38;47.50;100970.63;5082187;28;20124;-76
2023/12/26 05:36:23;;;;;;;5.77;0.70;;;;;;;15.33;47.02;100972.56;5050030;28;20036;-76
2023/12/26 05:38:49;;;;;;;4.30;0.40;;;;;;;15.71;46.22;100975.84;5049209;28;20353;-76
2023/12/26 05:41:14;;;;;;;7.27;1.20;;;;;;;15.73;46.70;100984.59;5049167;28;20036;-76
2023/12/26 05:43:40;;;;;;;1.83;0.50;;;;;;;15.73;46.11;100994.25;5064419;28;20119;-76
2023/12/26 05:46:05;;;;;;;5.03;0.60;;;;;;;15.77;46.02;101002.03;5053461;28;20056;-76
2023/12/26 05:48:31;;;;;;;6.50;0.83;;;;;;;15.68;46.45;101002.28;5040125;28;20037;-76
2023/12/26 05:50:56;;;;;;;4.00;0.70;;;;;;;15.87;45.80;101010.56;5055991;28;20033;-76
2023/12/26 05:53:23;;;;;;;1.63;0.30;;;;;;;15.40;46.73;101015.34;5048621;28;20037;-76
2023/12/26 05:55:49;;;;;;;4.70;0.60;;;;;;;14.88;48.20;101026.34;5048965;28;20214;-76
2023/12/26 05:58:14;;;;;;;3.00;1.30;;;;;;;14.88;49.23;101036.03;5060455;28;20097;-74
2023/12/26 06:00:40;;;;;;;4.07;1.00;;;;;;;14.92;49.08;101035.06;5065392;28;20029;-76
2023/12/26 06:03:05;;;;;;;8.47;1.97;;;;;;;15.09;48.63;101046.00;5054837;28;20039;-76
2023/12/26 06:05:31;;;;;;;4.10;0.70;;;;;;;15.01;48.21;101041.84;5041762;28;20049;-75
2023/12/26 06:07:56;;;;;;;7.27;0.50;;;;;;;14.83;48.93;101049.28;5052936;28;20037;-76
2023/12/26 06:10:22;;;;;;;3.70;1.17;;;;;;;15.58;47.64;101045.63;5046469;28;20041;-76
2023/12/26 06:12:47;;;;;;;3.10;0.50;;;;;;;15.30;48.24;101043.72;5057723;28;20413;-76
2023/12/26 06:15:13;;;;;;;6.30;0.80;;;;;;;15.00;48.19;101046.25;5074441;28;20119;-76
2023/12/26 06:17:38;;;;;;;1.20;0.53;;;;;;;15.19;48.72;101051.03;5051983;28;20082;-76
2023/12/26 06:20:04;;;;;;;7.47;1.03;;;;;;;15.48;48.21;101062.56;5036954;28;20025;-76
2023/12/26 06:22:30;;;;;;;7.63;1.07;;;;;;;14.88;48.86;101063.19;5047422;28;20033;-76
2023/12/26 06:24:56;;;;;;;8.77;0.77;;;;;;;15.42;47.96;101061.81;5054144;28;20029;-76
2023/12/26 06:27:21;;;;;;;7.97;0.90;;;;;;;15.05;49.02;101064.56;5051744;28;20040;-76
2023/12/26 06:29:46;;;;;;;5.83;0.57;;;;;;;14.65;50.31;101076.03;5072662;28;20024;-76
2023/12/26 06:32:12;;;;;;;2.67;1.03;;;;;;;14.83;49.24;101069.47;5058448;28;20116;-76
2023/12/26 06:34:37;;;;;;;9.43;1.03;;;;;;;15.21;49.09;101072.94;5069203;28;20498;-76
2023/12/26 06:37:04;;;;;;;5.23;1.00;;;;;;;15.09;48.29;101069.69;5063924;28;20032;-76
2023/12/26 06:39:32;;;;;;;2.93;0.93;;;;;;;15.05;48.28;101073.31;5054570;28;20032;-76
2023/12/26 06:41:57;;;;;;;11.50;1.37;;;;;;;15.33;48.81;101095.44;5051219;28;20507;-77
2023/12/26 06:44:23;;;;;;;15.20;1.57;;;;;;;14.99;48.64;101094.53;5050176;28;20041;-77
2023/12/26 06:46:48;;;;;;;11.03;0.97;;;;;;;14.71;48.82;101107.47;5042299;28;20060;-77
2023/12/26 06:49:17;;;;;;;7.33;1.10;;;;;;;14.83;48.95;101108.97;5064316;28;20111;-76
2023/12/26 06:51:43;;;;;;;7.70;1.03;;;;;;;14.96;48.83;101107.78;5065312;28;20032;-77
2023/12/26 06:54:08;;;;;;;3.20;0.77;;;;;;;15.12;48.16;101123.19;5065011;28;20435;-76
2023/12/26 06:56:33;;;;;;;4.03;1.03;;;;;;;15.36;47.29;101126.97;5056519;28;20423;-75
2023/12/26 06:58:59;;;;;;;5.00;1.07;;;;;;;15.36;46.84;101112.03;5051870;28;20432;-76
2023/12/26 07:01:25;;;;;;;17.33;1.57;;;;;;;15.69;46.48;101119.97;5035183;28;20033;-77
2023/12/26 07:03:50;;;;;;;2.80;0.70;;;;;;;15.02;48.16;101123.41;5068557;28;20131;-76
2023/12/26 07:06:16;;;;;;;2.73;0.60;;;;;;;15.49;47.35;101122.25;5057436;28;20714;-76
2023/12/26 07:08:41;;;;;;;7.13;1.03;;;;;;;15.36;47.58;101127.84;5051251;28;20116;-75
2023/12/26 07:11:06;;;;;;;2.33;0.70;;;;;;;15.39;47.87;101122.50;5049310;28;20039;-76
2023/12/26 07:13:32;;;;;;;7.40;0.73;;;;;;;15.63;46.85;101124.53;5050437;28;20032;-76
2023/12/26 07:15:57;;;;;;;3.60;1.10;;;;;;;14.75;48.93;101135.44;5049889;28;20033;-76
2023/12/26 07:18:23;;;;;;;4.43;0.83;;;;;;;15.71;47.91;101117.28;5056868;28;20021;-73
2023/12/26 07:20:49;;;;;;;4.03;0.60;;;;;;;16.31;45.75;101127.94;5051895;28;20029;-76
2023/12/26 07:23:14;;;;;;;2.70;0.70;;;;;;;15.30;48.46;101133.25;5050900;28;20036;-76
2023/12/26 07:25:41;;;;;;;5.90;0.80;;;;;;;15.21;48.23;101128.25;5048559;28;20047;-76
2023/12/26 07:28:06;;;;;;;10.53;1.17;;;;;;;15.16;48.82;101138.00;5053451;28;20084;-76
2023/12/26 07:30:32;;;;;;;9.87;1.57;;;;;;;15.96;48.17;101146.50;5055905;28;20120;-77
2023/12/26 07:32:58;;;;;;;8.13;0.80;;;;;;;15.87;48.63;101138.88;5053081;28;20113;-78
2023/12/26 07:35:23;;;;;;;5.73;0.80;;;;;;;15.90;49.11;101147.53;5051891;28;20025;-76
2023/12/26 07:37:49;;;;;;;5.27;1.00;;;;;;;15.77;49.41;101154.88;5051280;28;20487;-78
2023/12/26 07:40:14;;;;;;;3.50;0.73;;;;;;;15.44;49.90;101151.34;5054835;28;20449;-78
2023/12/26 07:42:40;;;;;;;12.63;1.07;;;;;;;14.84;51.70;101171.22;5050793;28;20552;-78
2023/12/26 07:45:05;;;;;;;2.93;0.63;;;;;;;14.88;51.43;101186.03;5069079;28;20020;-77
2023/12/26 07:47:31;;;;;;;8.03;1.40;;;;;;;15.75;49.60;101187.47;5058947;28;20048;-78
2023/12/26 07:49:56;;;;;;;1.93;0.43;;;;;;;14.81;51.09;101202.84;5053511;28;20091;-78
2023/12/26 07:52:23;;;;;;;3.30;0.83;;;;;;;15.53;48.88;101198.53;5054253;28;20027;-78
2023/12/26 07:54:48;;;;;;;4.33;0.80;;;;;;;14.73;50.76;101203.88;5051802;28;20116;-77
2023/12/26 07:57:13;;;;;;;3.03;0.87;;;;;;;15.01;49.94;101215.56;5041870;28;20088;-77
2023/12/26 07:59:39;;;;;;;4.60;1.10;;;;;;;15.12;50.00;101218.81;5059625;28;20510;-77
2023/12/26 08:02:05;;;;;;;5.80;0.57;;;;;;;15.55;48.96;101216.94;5057678;28;20127;-77
2023/12/26 08:04:31;;;;;;;3.23;0.57;;;;;;;16.11;47.99;101216.41;5049273;28;20024;-78
2023/12/26 08:06:56;;;;;;;2.83;0.83;;;;;;;15.69;48.55;101219.22;5047791;28;20031;-78
2023/12/26 08:09:22;;;;;;;9.83;1.83;;;;;;;15.57;48.92;101233.59;5045042;28;20025;-78
2023/12/26 08:11:47;;;;;;;6.50;1.17;;;;;;;15.15;49.73;101238.94;5055775;28;20069;-78
2023/12/26 08:14:17;;;;;;;3.30;0.77;;;;;;;15.34;49.66;101249.94;5052990;28;20052;-77
2023/12/26 08:16:45;;;;;;;4.90;1.27;;;;;;;15.55;48.82;101248.56;5050078;28;20028;-78
2023/12/26 08:19:11;;;;;;;7.87;0.63;;;;;;;15.70;47.98;101264.00;5051447;28;20056;-78
2023/12/26 08:21:37;;;;;;;6.13;0.80;;;;;;;15.95;47.96;101271.34;5049055;28;20413;-78
2023/12/26 08:24:04;;;;;;;7.10;0.80;;;;;;;15.37;49.44;101271.81;5048492;28;20528;-78
2023/12/26 08:26:32;;;;;;;9.53;2.33;;;;;;;15.86;48.93;101267.13;5046974;28;20508;-78
2023/12/26 08:28:58;;;;;;;6.10;1.10;;;;;;;15.33;49.31;101275.41;5050145;28;20023;-78
2023/12/26 08:31:23;;;;;;;12.90;1.23;;;;;;;15.70;47.99;101279.81;5049491;28;20025;-78
2023/12/26 08:33:49;;;;;;;3.87;0.50;;;;;;;15.54;48.72;101284.56;5045781;28;20037;-77
2023/12/26 08:36:14;;;;;;;8.10;1.40;;;;;;;15.10;49.37;101284.69;5060498;28;20071;-77
2023/12/26 08:38:41;;;;;;;8.97;1.97;;;;;;;15.67;48.07;101290.41;5055671;28;20037;-77
2023/12/26 08:41:09;;;;;;;9.87;1.33;;;;;;;16.06;47.58;101277.19;5047323;28;20588;-79
2023/12/26 08:43:35;;;;;;;15.40;1.00;;;;;;;15.63;47.81;101287.91;5051542;28;20029;-78
2023/12/26 08:46:00;;;;;;;5.53;1.10;;;;;;;14.75;50.47;101294.19;5050326;28;20047;-78
2023/12/26 08:48:26;;;;;;;7.20;0.73;;;;;;;15.11;49.36;101301.31;5049548;28;20029;-78
2023/12/26 08:50:51;;;;;;;4.17;0.97;;;;;;;14.97;50.18;101314.78;5059869;28;20468;-78
2023/12/26 08:53:17;;;;;;;7.87;0.87;;;;;;;15.22;49.28;101316.91;5056904;28;20102;-77
2023/12/26 08:55:45;;;;;;;3.73;0.70;;;;;;;14.57;50.51;101321.66;5053618;28;20032;-77
2023/12/26 08:58:11;;;;;;;10.70;1.13;;;;;;;15.50;48.74;101330.34;5048957;28;20025;-78
2023/12/26 09:00:36;;;;;;;4.80;0.93;;;;;;;15.51;48.28;101331.19;5053402;28;20449;-77
2023/12/26 09:03:02;;;;;;;8.40;1.30;;;;;;;14.73;49.46;101332.81;5069650;28;20025;-76
2023/12/26 09:05:28;;;;;;;6.03;0.90;;;;;;;15.12;49.19;101323.28;5066885;28;20023;-78
2023/12/26 09:07:53;;;;;;;3.80;1.33;;;;;;;14.90;49.92;101328.97;5049168;28;20108;-77
2023/12/26 09:10:19;;;;;;;6.53;1.20;;;;;;;15.98;47.64;101341.53;5050400;28;20032;-78
2023/12/26 09:12:44;;;;;;;8.57;1.17;;;;;;;14.93;49.90;101347.34;5055027;28;20021;-77
2023/12/26 09:15:10;;;;;;;9.70;0.70;;;;;;;15.77;47.89;101355.19;5049429;28;20503;-78
2023/12/26 09:17:36;;;;;;;8.63;1.33;;;;;;;15.66;47.92;101357.22;5050100;28;20357;-78
2023/12/26 09:20:02;;;;;;;10.53;1.63;;;;;;;15.26;49.73;101352.81;5050199;28;20460;-78
2023/12/26 09:22:28;;;;;;;9.70;1.03;;;;;;;15.22;49.73;101362.56;5045914;28;20024;-78
2023/12/26 09:24:54;;;;;;;10.53;1.30;;;;;;;14.38;50.19;101373.78;5031270;28;20104;-76
2023/12/26 09:27:19;;;;;;;5.87;0.90;;;;;;;14.79;50.24;101367.81;5065388;28;20189;-76
2023/12/26 09:29:45;;;;;;;6.60;1.37;;;;;;;15.84;47.91;101360.34;5057160;28;20021;-78
2023/12/26 09:32:10;;;;;;;13.77;1.10;;;;;;;15.88;48.06;101375.19;5061103;28;20247;-78
2023/12/26 09:34:36;;;;;;;6.13;1.13;;;;;;;15.57;49.03;101383.75;5049775;28;20663;-78
2023/12/26 09:37:02;;;;;;;6.77;0.90;;;;;;;14.48;50.32;101386.72;5049093;28;20039;-77
2023/12/26 09:39:27;;;;;;;6.73;1.90;;;;;;;15.27;49.84;101396.69;5066394;28;20642;-78
2023/12/26 09:41:55;;;;;;;8.33;1.47;;;;;;;14.75;50.40;101409.97;5049333;28;20060;-78
2023/12/26 09:44:21;;;;;;;10.50;0.93;;;;;;;14.85;50.33;101415.03;5054772;28;20032;-78
2023/12/26 09:46:47;;;;;;;2.20;0.63;;;;;;;15.26;49.35;101400.22;5054361;28;20053;-78
2023/12/26 09:49:13;;;;;;;5.00;0.67;;;;;;;15.50;48.94;101424.31;5053847;28;20029;-78
2023/12/26 09:51:44;;;;;;;5.50;0.87;;;;;;;15.33;49.30;101417.66;5062715;28;20074;-78
2023/12/26 09:54:11;;;;;;;11.93;2.10;;;;;;;16.04;47.51;101437.19;5074197;28;20044;-79
2023/12/26 09:56:40;;;;;;;6.43;0.87;;;;;;;15.26;48.39;101419.53;5067273;28;20188;-76
2023/12/26 09:59:07;;;;;;;1.67;0.80;;;;;;;16.11;48.07;101437.91;5055037;28;20138;-77
2023/12/26 10:01:32;;;;;;;6.80;1.30;;;;;;;15.64;47.87;101435.41;5049784;28;20025;-78
2023/12/26 10:03:58;;;;;;;6.37;1.20;;;;;;;15.20;49.31;101437.22;5050225;28;20567;-78
2023/12/26 10:06:23;;;;;;;8.67;1.07;;;;;;;14.88;49.87;101443.97;5058895;28;20541;-77
2023/12/26 10:08:49;;;;;;;8.77;1.03;;;;;;;15.33;49.09;101446.63;5073584;28;20555;-78
2023/12/26 10:11:15;;;;;;;7.60;1.20;;;;;;;15.65;48.34;101449.44;5069701;28;20027;-78
2023/12/26 10:13:53;;;;;;;12.53;1.53;;;;;;;15.10;48.81;101453.19;5053583;28;20090;-77
2023/12/26 10:16:19;;;;;;;3.30;0.97;;;;;;;15.24;48.71;101459.94;5056497;28;20476;-77
2023/12/26 10:18:45;;;;;;;2.10;0.70;;;;;;;14.83;49.50;101453.69;5053824;28;20032;-76
2023/12/26 10:21:11;;;;;;;8.57;1.13;;;;;;;16.20;47.62;101457.94;5054781;28;20029;-78
2023/12/26 10:23:37;;;;;;;2.53;0.57;;;;;;;16.26;46.61;101473.63;5073082;28;20119;-78
2023/12/26 10:26:03;;;;;;;6.67;1.30;;;;;;;16.32;45.85;101472.59;5072864;28;20460;-78
2023/12/26 10:28:39;;;;;;;3.90;0.70;;;;;;;15.89;46.66;101474.44;5069800;28;20074;-77
2023/12/26 10:31:14;;;;;;;9.43;1.07;;;;;;;15.69;47.26;101481.00;5049264;28;20048;-78
2023/12/26 10:33:41;;;;;;;4.00;0.90;;;;;;;15.99;46.91;101469.84;5067567;28;20425;-78
2023/12/26 10:36:10;;;;;;;5.10;0.83;;;;;;;16.65;45.02;101481.47;5070010;28;20052;-78
2023/12/26 10:38:36;;;;;;;4.17;1.30;;;;;;;16.96;44.35;101488.63;5032739;28;20037;-78
2023/12/26 10:41:23;;;;;;;8.73;2.07;;;;;;;16.99;43.85;101477.97;5042752;28;20021;-78
2023/12/26 10:43:54;;;;;;;6.80;0.97;;;;;;;17.01;43.81;101489.38;5032820;28;20128;-77
2023/12/26 10:46:20;;;;;;;6.37;0.80;;;;;;;17.33;43.55;101490.28;5033783;28;20069;-78
2023/12/26 10:48:48;;;;;;;8.53;1.03;;;;;;;17.20;43.66;101494.16;5063920;28;20574;-78
2023/12/26 10:51:15;;;;;;;3.97;0.80;;;;;;;16.90;44.89;101502.00;5041328;28;20493;-78
2023/12/26 10:53:50;;;;;;;4.73;1.30;;;;;;;17.43;43.33;101502.34;5050549;28;20032;-78
2023/12/26 10:56:17;;;;;;;3.47;1.07;;;;;;;16.71;44.86;101502.44;5053313;28;20025;-77
2023/12/26 10:58:44;;;;;;;8.87;1.00;;;;;;;15.77;45.75;101508.06;5064014;28;20046;-76
2023/12/26 13:52:42;;;;;;;3.57;1.00;;;;;;;16.83;42.72;101706.31;5044359;28;20423;-77
2023/12/26 13:55:07;;;;;;;2.37;0.73;;;;;;;17.41;41.75;101720.81;5051333;28;20025;-77
2023/12/26 13:57:32;;;;;;;6.53;1.67;;;;;;;16.58;43.10;101722.66;5046634;28;20040;-76
2023/12/26 13:59:59;;;;;;;7.97;1.30;;;;;;;16.39;43.08;101728.34;5064512;28;20108;-77
2023/12/26 14:02:25;;;;;;;3.83;1.20;;;;;;;16.39;42.68;101728.34;5054921;28;20029;-77
2023/12/26 14:04:50;;;;;;;9.90;1.10;;;;;;;16.79;42.15;101732.78;5048891;28;20036;-77
2023/12/26 14:07:19;;;;;;;5.27;1.37;;;;;;;16.99;42.27;101747.34;5050582;28;20560;-76
2023/12/26 14:09:45;;;;;;;7.07;1.07;;;;;;;15.78;44.26;101746.13;5044501;28;20036;-76